createdAt,value
2018-05-15T00:04:07.942Z,15.90
2018-05-15T00:06:35.772Z,15.90
2018-05-15T00:09:04.376Z,15.80
2018-05-15T00:11:33.031Z,15.80
2018-05-15T00:14:00.901Z,15.80
2018-05-15T00:16:29.499Z,15.90
2018-05-15T00:18:58.087Z,16.10
2018-05-15T00:21:25.911Z,16.10
2018-05-15T00:23:53.722Z,16.10
2018-05-15T00:26:22.371Z,16.10
2018-05-15T00:28:50.190Z,16.10
2018-05-15T00:31:18.012Z,16.10
2018-05-15T00:39:46.963Z,15.80
2018-05-15T00:42:15.599Z,15.80
2018-05-15T00:44:44.676Z,15.70
2018-05-15T00:47:12.570Z,15.60
2018-05-15T00:49:40.382Z,15.50
2018-05-15T00:52:09.007Z,15.40
2018-05-15T01:03:56.987Z,15.40
2018-05-15T01:06:24.828Z,15.30
2018-05-15T01:08:53.413Z,15.20
2018-05-15T01:11:21.237Z,15.20
2018-05-15T01:13:49.060Z,15.10
2018-05-15T01:19:09.171Z,15.10
2018-05-15T01:28:26.244Z,15.10
2018-05-15T01:30:54.152Z,15.10
2018-05-15T01:33:21.971Z,15.10
2018-05-15T01:35:49.819Z,15.10
2018-05-15T01:38:18.399Z,15.00
2018-05-15T01:40:46.979Z,15.10
2018-05-15T01:45:57.067Z,15.20
2018-05-15T01:48:24.911Z,15.30
2018-05-15T01:50:53.533Z,15.30
2018-05-15T01:53:21.435Z,15.30
2018-05-15T01:55:49.491Z,15.30
2018-05-15T01:58:17.425Z,15.30
2018-05-15T02:00:45.324Z,15.30
2018-05-15T02:03:13.151Z,15.30
2018-05-15T02:05:41.007Z,15.20
2018-05-15T02:08:09.659Z,14.80
2018-05-15T02:10:37.475Z,14.90
2018-05-15T02:13:06.088Z,14.60
2018-05-15T02:22:41.184Z,14.30
2018-05-15T02:25:09.051Z,14.30
2018-05-15T02:27:36.839Z,14.40
2018-05-15T02:30:04.668Z,14.30
2018-05-15T02:32:32.503Z,14.30
2018-05-15T02:35:00.370Z,14.20
2018-05-15T02:37:28.232Z,13.90
2018-05-15T02:39:56.880Z,13.90
2018-05-15T02:42:24.819Z,13.90
2018-05-15T02:44:52.688Z,13.90
2018-05-15T02:47:20.543Z,13.90
2018-05-15T02:49:48.348Z,13.90
2018-05-15T02:52:16.996Z,14.00
2018-05-15T03:03:59.179Z,13.80
2018-05-15T03:06:27.034Z,13.80
2018-05-15T03:08:54.845Z,13.70
2018-05-15T03:11:22.719Z,13.70
2018-05-15T03:13:51.356Z,13.70
2018-05-15T03:19:07.600Z,13.70
2018-05-15T03:21:36.215Z,13.60
2018-05-15T03:24:04.075Z,13.50
2018-05-15T03:26:32.739Z,13.50
2018-05-15T03:29:00.579Z,13.50
2018-05-15T03:31:28.411Z,13.40
2018-05-15T03:37:37.952Z,13.40
2018-05-15T03:40:05.862Z,13.40
2018-05-15T03:42:33.749Z,13.40
2018-05-15T03:45:01.655Z,13.40
2018-05-15T03:47:30.247Z,13.40
2018-05-15T03:49:58.085Z,13.30
2018-05-15T03:52:25.974Z,13.20
2018-05-15T03:54:54.576Z,13.20
2018-05-15T03:57:22.412Z,13.10
2018-05-15T03:59:51.019Z,13.20
2018-05-15T04:02:24.658Z,13.10
2018-05-15T04:05:01.947Z,13.20
2018-05-15T04:07:35.711Z,13.30
2018-05-15T04:19:00.516Z,13.50
2018-05-15T04:21:28.332Z,13.50
2018-05-15T04:23:56.928Z,13.60
2018-05-15T04:26:24.781Z,13.60
2018-05-15T04:28:52.616Z,13.70
2018-05-15T04:31:20.500Z,13.80
2018-05-15T04:33:49.084Z,13.80
2018-05-15T04:36:17.680Z,13.80
2018-05-15T04:38:46.337Z,13.90
2018-05-15T04:41:14.176Z,13.90
2018-05-15T04:43:42.868Z,14.10
2018-05-15T04:46:10.672Z,14.10
2018-05-15T04:48:39.341Z,14.10
2018-05-15T04:51:07.939Z,14.10
2018-05-15T04:53:36.593Z,14.10
2018-05-15T04:56:04.435Z,14.10
2018-05-15T04:58:32.252Z,14.00
2018-05-15T05:01:00.888Z,14.10
2018-05-15T05:03:28.719Z,14.00
2018-05-15T05:05:56.539Z,14.10
2018-05-15T05:08:24.473Z,14.10
2018-05-15T05:10:52.374Z,14.10
2018-05-15T05:13:20.193Z,14.00
2018-05-15T05:15:48.028Z,14.10
2018-05-15T05:18:15.856Z,14.20
2018-05-15T05:20:43.684Z,14.40
2018-05-15T05:23:12.269Z,14.40
2018-05-15T05:25:40.112Z,14.30
2018-05-15T05:28:07.927Z,14.40
2018-05-15T05:30:35.763Z,14.50
2018-05-15T05:33:04.383Z,14.60
2018-05-15T05:35:32.233Z,14.60
2018-05-15T05:38:00.143Z,14.70
2018-05-15T05:40:28.005Z,14.90
2018-05-15T05:42:56.646Z,14.90
2018-05-15T05:45:24.584Z,14.90
2018-05-15T05:47:52.399Z,15.10
2018-05-15T05:50:20.271Z,15.30
2018-05-15T05:52:48.091Z,15.40
2018-05-15T05:55:16.713Z,15.50
2018-05-15T05:57:44.519Z,15.40
2018-05-15T06:00:12.362Z,15.50
2018-05-15T06:02:40.271Z,15.70
2018-05-15T06:05:08.860Z,15.50
2018-05-15T06:07:37.498Z,15.60
2018-05-15T06:10:05.351Z,15.60
2018-05-15T06:12:33.207Z,15.70
2018-05-15T06:15:01.035Z,15.80
2018-05-15T06:17:28.915Z,15.90
2018-05-15T06:19:56.719Z,15.90
2018-05-15T06:22:24.848Z,16.10
2018-05-15T06:24:52.647Z,16.20
2018-05-15T06:27:20.468Z,16.40
2018-05-15T06:29:48.341Z,16.50
2018-05-15T06:32:16.973Z,16.70
2018-05-15T06:34:47.347Z,16.70
2018-05-15T06:37:16.028Z,16.80
2018-05-15T06:39:43.873Z,16.80
2018-05-15T06:42:11.771Z,17.10
2018-05-15T06:44:39.659Z,17.50
2018-05-15T06:47:07.528Z,17.70
2018-05-15T06:49:36.210Z,18.70
2018-05-15T06:52:04.792Z,19.60
2018-05-15T06:54:32.714Z,19.50
2018-05-15T06:57:00.543Z,21.00
2018-05-15T06:59:28.368Z,21.30
2018-05-15T07:01:56.352Z,21.80
2018-05-15T07:04:24.210Z,22.60
2018-05-15T07:06:54.565Z,23.80
2018-05-15T07:09:23.272Z,24.90
2018-05-15T07:11:51.136Z,24.80
2018-05-15T07:14:19.764Z,25.90
2018-05-15T07:16:47.589Z,25.90
2018-05-15T07:19:16.336Z,27.60
2018-05-15T07:21:44.174Z,27.60
2018-05-15T07:24:12.004Z,27.50
2018-05-15T07:26:40.608Z,26.70
2018-05-15T07:29:08.559Z,26.70
2018-05-15T07:31:51.533Z,27.50
2018-05-15T07:34:19.359Z,27.50
2018-05-15T07:39:29.068Z,28.10
2018-05-15T07:41:56.931Z,26.70
2018-05-15T07:47:59.795Z,26.70
2018-05-15T07:50:27.789Z,28.40
2018-05-15T07:53:11.527Z,30.00
2018-05-15T07:55:39.359Z,29.90
2018-05-15T07:58:07.201Z,27.40
2018-05-15T08:00:35.096Z,26.90
2018-05-15T08:03:02.938Z,28.30
2018-05-15T08:05:30.759Z,27.40
2018-05-15T08:07:59.753Z,26.20
2018-05-15T08:10:28.527Z,25.60
2018-05-15T08:12:56.340Z,25.50
2018-05-15T08:15:24.235Z,24.30
2018-05-15T08:17:52.063Z,24.40
2018-05-15T08:20:19.894Z,26.50
2018-05-15T08:22:48.549Z,28.60
2018-05-15T08:25:16.679Z,28.60
2018-05-15T08:27:44.620Z,29.80
2018-05-15T08:30:12.558Z,28.40
2018-05-15T08:32:40.390Z,26.00
2018-05-15T08:35:08.233Z,23.70
2018-05-15T08:37:36.934Z,22.30
2018-05-15T08:43:42.282Z,20.80
2018-05-15T08:46:10.080Z,20.80
2018-05-15T08:48:37.891Z,20.60
2018-05-15T08:51:06.511Z,20.60
2018-05-15T08:59:00.645Z,20.40
2018-05-15T09:01:28.526Z,19.80
2018-05-15T09:03:56.374Z,20.00
2018-05-15T09:06:24.259Z,20.00
2018-05-15T09:08:52.100Z,20.00
2018-05-15T09:11:19.906Z,19.90
2018-05-15T09:16:29.329Z,19.90
2018-05-15T09:18:57.228Z,19.80
2018-05-15T09:21:25.110Z,20.00
2018-05-15T09:23:52.942Z,19.70
2018-05-15T09:26:20.763Z,19.70
2018-05-15T09:28:49.455Z,19.70
2018-05-15T09:31:18.118Z,20.00
2018-05-15T09:33:46.849Z,20.10
2018-05-15T09:36:14.659Z,20.10
2018-05-15T09:38:42.491Z,20.10
2018-05-15T09:41:10.371Z,19.80
2018-05-15T09:43:53.087Z,19.90
2018-05-15T09:46:21.017Z,19.90
2018-05-15T09:48:49.681Z,19.50
2018-05-15T09:51:18.287Z,19.40
2018-05-15T09:53:46.958Z,19.50
2018-05-15T09:56:14.775Z,19.50
2018-05-15T09:58:42.835Z,19.90
2018-05-15T10:01:10.668Z,20.20
2018-05-15T10:03:39.327Z,20.40
2018-05-15T10:06:07.157Z,20.40
2018-05-15T10:12:28.363Z,19.70
2018-05-15T10:14:56.219Z,19.50
2018-05-15T10:17:24.031Z,18.90
2018-05-15T10:19:51.933Z,18.70
2018-05-15T10:22:19.651Z,18.60
2018-05-15T10:24:47.586Z,18.40
2018-05-15T10:27:15.442Z,18.40
2018-05-15T10:29:44.078Z,18.60
2018-05-15T10:32:11.970Z,18.60
2018-05-15T10:34:39.848Z,18.70
2018-05-15T10:37:08.563Z,18.80
2018-05-15T10:39:37.208Z,18.70
2018-05-15T10:42:05.041Z,18.70
2018-05-15T10:44:32.951Z,18.40
2018-05-15T10:47:02.165Z,18.40
2018-05-15T10:49:30.833Z,18.40
2018-05-15T10:51:58.663Z,18.30
2018-05-15T10:54:26.498Z,18.20
2018-05-15T10:56:55.175Z,17.90
2018-05-15T10:59:23.861Z,17.70
2018-05-15T11:01:52.466Z,17.70
2018-05-15T11:04:21.127Z,17.60
2018-05-15T11:06:49.020Z,17.60
2018-05-15T11:11:59.383Z,18.30
2018-05-15T11:14:27.988Z,18.40
2018-05-15T11:16:55.831Z,18.40
2018-05-15T11:19:30.223Z,18.70
2018-05-15T11:22:15.919Z,18.70
2018-05-15T11:24:49.556Z,19.00
2018-05-15T11:27:17.403Z,18.90
2018-05-15T11:29:46.005Z,18.90
2018-05-15T11:32:14.991Z,18.90
2018-05-15T11:34:43.676Z,18.80
2018-05-15T11:37:12.275Z,18.80
2018-05-15T11:39:40.155Z,18.70
2018-05-15T11:42:07.996Z,18.80
2018-05-15T11:44:36.608Z,18.60
2018-05-15T11:47:04.527Z,18.60
2018-05-15T11:49:34.506Z,18.40
2018-05-15T11:52:03.147Z,18.50
2018-05-15T11:54:34.759Z,18.40
2018-05-15T11:57:02.739Z,18.40
2018-05-15T12:03:13.379Z,18.30
2018-05-15T12:05:41.255Z,18.10
2018-05-15T12:08:09.269Z,18.20
2018-05-15T12:10:37.131Z,18.10
2018-05-15T12:18:53.234Z,17.90
2018-05-15T12:21:21.135Z,17.70
2018-05-15T12:23:49.028Z,17.80
2018-05-15T12:26:16.872Z,17.50
2018-05-15T12:28:45.589Z,17.40
2018-05-15T12:31:13.422Z,17.40
2018-05-15T12:33:41.289Z,17.40
2018-05-15T12:36:09.130Z,17.60
2018-05-15T12:38:36.951Z,17.50
2018-05-15T12:41:04.831Z,17.20
2018-05-15T12:43:32.709Z,17.30
2018-05-15T12:46:00.593Z,17.60
2018-05-15T12:48:30.395Z,18.00
2018-05-15T12:58:03.407Z,19.50
2018-05-15T13:00:32.024Z,19.70
2018-05-15T13:02:59.852Z,19.70
2018-05-15T13:05:28.504Z,19.30
2018-05-15T13:07:57.094Z,18.90
2018-05-15T13:10:25.711Z,18.60
2018-05-15T13:12:53.582Z,18.60
2018-05-15T13:15:21.411Z,18.50
2018-05-15T13:17:50.016Z,18.00
2018-05-15T13:20:18.632Z,18.00
2018-05-15T13:22:46.470Z,18.00
2018-05-15T13:25:15.131Z,17.80
2018-05-15T13:27:43.027Z,17.80
2018-05-15T13:30:10.935Z,17.80
2018-05-15T13:32:38.831Z,17.80
2018-05-15T13:35:06.662Z,17.80
2018-05-15T13:37:34.743Z,17.30
2018-05-15T13:40:02.611Z,17.00
2018-05-15T13:42:30.430Z,16.30
2018-05-15T13:44:58.257Z,15.40
2018-05-15T13:47:26.875Z,13.90
2018-05-15T13:49:57.206Z,13.70
2018-05-15T13:52:25.027Z,13.70
2018-05-15T13:54:52.855Z,13.70
2018-05-15T13:57:20.668Z,13.40
2018-05-15T13:59:48.483Z,13.40
2018-05-15T14:02:16.312Z,13.60
2018-05-15T14:04:44.124Z,13.60
2018-05-15T14:07:11.948Z,14.00
2018-05-15T14:09:39.828Z,14.00
2018-05-15T14:12:08.454Z,14.40
2018-05-15T14:14:36.525Z,14.40
2018-05-15T14:17:04.383Z,14.50
2018-05-15T14:19:32.220Z,14.50
2018-05-15T14:22:00.828Z,14.80
2018-05-15T14:24:28.676Z,14.80
2018-05-15T14:33:42.373Z,15.70
2018-05-15T14:36:10.279Z,15.80
2018-05-15T14:38:38.096Z,15.90
2018-05-15T14:43:47.722Z,17.00
2018-05-15T14:46:15.535Z,16.90
2018-05-15T14:48:43.430Z,16.90
2018-05-15T14:51:31.013Z,17.10
2018-05-15T14:54:05.541Z,17.50
2018-05-15T14:56:34.136Z,18.20
2018-05-15T14:59:01.985Z,18.20
2018-05-15T15:01:29.790Z,18.70
2018-05-15T15:03:57.636Z,19.10
2018-05-15T15:06:25.451Z,19.60
2018-05-15T15:08:53.286Z,19.80
2018-05-15T15:11:21.147Z,18.80
2018-05-15T15:13:51.400Z,18.40
2018-05-15T15:16:19.295Z,18.40
2018-05-15T15:18:47.935Z,19.50
2018-05-15T15:21:15.897Z,19.50
2018-05-15T15:23:44.701Z,18.80
2018-05-15T15:26:12.663Z,18.80
2018-05-15T15:28:40.487Z,18.40
2018-05-15T15:31:08.290Z,18.10
2018-05-15T15:33:36.154Z,18.20
2018-05-15T15:36:03.984Z,18.20
2018-05-15T15:38:32.207Z,17.80
2018-05-15T15:41:00.063Z,17.40
2018-05-15T15:43:27.884Z,17.40
2018-05-15T15:45:56.601Z,17.30
2018-05-15T15:48:24.459Z,17.30
2018-05-15T15:50:53.052Z,18.10
2018-05-15T15:53:20.903Z,18.10
2018-05-15T15:55:48.738Z,18.00
2018-05-15T16:04:01.283Z,17.00
2018-05-15T16:06:29.848Z,16.80
2018-05-15T16:08:57.803Z,16.70
2018-05-15T16:11:25.679Z,16.60
2018-05-15T16:13:53.521Z,16.70
2018-05-15T16:16:21.348Z,16.70
2018-05-15T16:18:49.241Z,16.50
2018-05-15T16:21:17.072Z,16.50
2018-05-15T16:23:44.899Z,16.40
2018-05-15T16:26:12.720Z,16.20
2018-05-15T16:28:41.424Z,15.90
2018-05-15T16:34:07.612Z,14.90
2018-05-15T16:36:35.434Z,14.90
2018-05-15T16:39:04.282Z,14.20
2018-05-15T16:41:32.211Z,14.20
2018-05-15T16:44:00.044Z,14.00
2018-05-15T16:46:27.900Z,13.70
2018-05-15T16:48:55.748Z,13.60
2018-05-15T16:54:12.838Z,13.50
2018-05-15T16:56:40.743Z,13.40
2018-05-15T16:59:08.570Z,13.30
2018-05-15T17:01:36.398Z,13.10
2018-05-15T17:04:05.012Z,13.10
2018-05-15T17:06:33.596Z,13.10
2018-05-15T17:12:44.205Z,13.10
2018-05-15T17:15:12.110Z,13.10
2018-05-15T17:17:40.696Z,13.00
2018-05-15T17:20:08.527Z,13.00
2018-05-15T17:22:36.380Z,13.00
2018-05-15T17:25:04.225Z,13.10
2018-05-15T17:27:32.828Z,13.00
2018-05-15T17:30:00.708Z,13.00
2018-05-15T17:32:29.507Z,12.80
2018-05-15T17:34:57.361Z,12.80
2018-05-15T17:37:25.196Z,12.90
2018-05-15T17:39:56.299Z,12.80
2018-05-15T17:42:24.178Z,12.80
2018-05-15T17:44:52.056Z,12.90
2018-05-15T17:47:19.996Z,12.90
2018-05-15T17:49:47.796Z,12.90
2018-05-15T17:52:15.612Z,13.00
2018-05-15T17:54:43.436Z,13.00
2018-05-15T17:57:12.952Z,13.10
2018-05-15T17:59:41.568Z,13.10
2018-05-15T18:02:09.430Z,13.10
2018-05-15T18:04:37.519Z,12.90
2018-05-15T18:07:06.217Z,12.90
2018-05-15T18:09:34.098Z,12.80
2018-05-15T18:12:01.961Z,12.70
2018-05-15T18:14:30.566Z,12.60
2018-05-15T18:16:59.270Z,12.50
2018-05-15T18:19:27.104Z,12.50
2018-05-15T18:21:54.928Z,12.60
2018-05-15T18:24:22.792Z,12.60
2018-05-15T18:26:50.621Z,12.60
2018-05-15T18:29:19.231Z,12.70
2018-05-15T18:31:47.086Z,12.60
2018-05-15T18:34:16.153Z,12.70
2018-05-15T18:36:43.955Z,12.60
2018-05-15T18:39:13.282Z,12.60
2018-05-15T18:41:41.145Z,12.60
2018-05-15T18:44:09.155Z,12.60
2018-05-15T18:46:37.790Z,12.60
2018-05-15T18:49:06.462Z,12.60
2018-05-15T18:51:34.296Z,12.60
2018-05-15T18:54:02.151Z,12.50
2018-05-15T18:56:30.055Z,12.50
2018-05-15T18:58:57.964Z,12.50
2018-05-15T19:01:26.614Z,12.50
2018-05-15T19:03:55.284Z,12.50
2018-05-15T19:06:23.874Z,12.50
2018-05-15T19:08:51.724Z,12.40
2018-05-15T19:11:20.663Z,12.40
2018-05-15T19:13:48.544Z,12.40
2018-05-15T19:16:16.363Z,12.40
2018-05-15T19:18:45.108Z,12.20
2018-05-15T19:21:12.951Z,12.20
2018-05-15T19:23:40.907Z,12.20
2018-05-15T19:26:08.870Z,12.30
2018-05-15T19:28:36.802Z,12.30
2018-05-15T19:31:05.846Z,12.30
2018-05-15T19:33:39.640Z,12.20
2018-05-15T19:36:11.392Z,12.20
2018-05-15T19:38:39.461Z,12.20
2018-05-15T19:41:09.277Z,12.20
2018-05-15T19:49:01.546Z,12.20
2018-05-15T19:51:29.505Z,12.20
2018-05-15T19:53:58.121Z,12.30
2018-05-15T19:56:26.029Z,12.30
2018-05-15T19:58:53.876Z,12.30
2018-05-15T20:01:22.532Z,12.50
2018-05-15T20:07:53.442Z,12.50
2018-05-15T20:10:22.367Z,12.60
2018-05-15T20:12:50.269Z,12.50
2018-05-15T20:15:18.132Z,12.50
2018-05-15T20:17:46.086Z,12.50
2018-05-15T20:20:14.684Z,12.50
2018-05-15T20:22:42.728Z,12.50
2018-05-15T20:25:12.193Z,12.50
2018-05-15T20:33:56.718Z,12.40
2018-05-15T20:36:24.564Z,12.50
2018-05-15T20:38:52.395Z,12.50
2018-05-15T20:41:21.596Z,12.40
2018-05-15T20:43:49.415Z,12.40
2018-05-15T20:46:17.329Z,12.50
2018-05-15T20:48:45.222Z,12.50
2018-05-15T20:51:13.147Z,12.50
2018-05-15T20:53:41.169Z,12.50
2018-05-15T20:56:09.012Z,12.40
2018-05-15T20:58:36.891Z,12.40
2018-05-15T21:01:04.751Z,12.40
2018-05-15T21:03:32.577Z,12.30
2018-05-15T21:06:01.187Z,12.20
2018-05-15T21:08:29.012Z,12.20
2018-05-15T21:16:20.991Z,12.20
2018-05-15T21:18:49.595Z,12.20
2018-05-15T21:21:17.419Z,12.10
2018-05-15T21:23:45.333Z,12.10
2018-05-15T21:26:13.324Z,12.20
2018-05-15T21:28:41.232Z,12.20
2018-05-15T21:31:09.050Z,12.30
2018-05-15T21:33:36.874Z,12.20
2018-05-15T21:36:04.694Z,12.20
2018-05-15T21:38:32.496Z,12.10
2018-05-15T21:41:00.312Z,12.10
2018-05-15T21:43:28.259Z,12.10
2018-05-15T21:45:56.076Z,12.10
2018-05-15T21:48:23.888Z,12.10
2018-05-15T21:54:08.067Z,12.00
2018-05-15T21:56:35.908Z,12.00
2018-05-15T21:59:04.610Z,12.00
2018-05-15T22:01:32.469Z,12.00
2018-05-15T22:04:01.147Z,12.00
2018-05-15T22:06:29.833Z,12.00
2018-05-15T22:12:53.194Z,12.00
2018-05-15T22:15:27.822Z,12.00
2018-05-15T22:18:02.778Z,12.00
2018-05-15T22:20:37.290Z,12.10
2018-05-15T22:23:04.797Z,12.10
2018-05-15T22:25:32.624Z,12.10
2018-05-15T22:28:01.226Z,12.10
2018-05-15T22:33:59.247Z,12.10
2018-05-15T22:36:27.073Z,12.20
2018-05-15T22:38:54.880Z,12.10
2018-05-15T22:41:22.928Z,12.10
2018-05-15T22:43:50.897Z,12.20
2018-05-15T22:46:18.784Z,12.20
2018-05-15T22:48:46.780Z,12.20
2018-05-15T22:51:14.611Z,12.20
2018-05-15T22:53:42.509Z,12.20
2018-05-15T22:56:10.400Z,12.20
2018-05-15T22:58:38.263Z,12.20
2018-05-15T23:01:06.163Z,12.20
2018-05-15T23:03:33.997Z,12.10
2018-05-15T23:08:43.592Z,12.10
2018-05-15T23:11:11.407Z,12.10
2018-05-15T23:13:39.261Z,12.10
2018-05-15T23:16:08.246Z,12.10
2018-05-15T23:18:36.060Z,12.10
2018-05-15T23:21:03.905Z,12.10
2018-05-15T23:23:31.727Z,12.10
2018-05-15T23:25:59.558Z,12.10
2018-05-15T23:28:28.167Z,12.10
2018-05-15T23:30:56.755Z,12.00
2018-05-15T23:33:24.580Z,12.00
2018-05-15T23:39:06.339Z,12.00
2018-05-15T23:41:34.244Z,12.00
2018-05-15T23:44:02.091Z,11.90
2018-05-15T23:46:29.916Z,11.90
2018-05-15T23:48:58.541Z,11.90
2018-05-15T23:51:26.353Z,11.90
2018-05-15T23:53:54.156Z,11.90
2018-05-15T23:56:21.973Z,11.90
2018-05-15T23:58:50.584Z,11.90
